sensor_id;sensor_type;location;lat;lon;timestamp;P1;durP1;ratioP1;P2;durP2;ratioP2
15679;SDS011;15488;48.114;11.532;2023-02-12T00:00:18;15.67;;;9.60;;
15679;SDS011;15488;48.114;11.532;2023-02-12T00:02:46;17.20;;;9.50;;
15679;SDS011;15488;48.114;11.532;2023-02-12T00:05:14;18.00;;;10.07;;
15679;SDS011;15488;48.114;11.532;2023-02-12T00:07:41;16.30;;;9.50;;
15679;SDS011;15488;48.114;11.532;2023-02-12T00:10:09;22.37;;;11.57;;
15679;SDS011;15488;48.114;11.532;2023-02-12T00:12:37;16.03;;;10.20;;
15679;SDS011;15488;48.114;11.532;2023-02-12T00:15:05;18.00;;;9.80;;
15679;SDS011;15488;48.114;11.532;2023-02-12T00:17:34;16.57;;;9.60;;
15679;SDS011;15488;48.114;11.532;2023-02-12T00:20:01;18.50;;;10.23;;
15679;SDS011;15488;48.114;11.532;2023-02-12T00:22:29;17.03;;;10.10;;
15679;SDS011;15488;48.114;11.532;2023-02-12T00:24:57;18.50;;;10.53;;
15679;SDS011;15488;48.114;11.532;2023-02-12T00:27:24;16.90;;;10.40;;
15679;SDS011;15488;48.114;11.532;2023-02-12T00:29:52;17.70;;;10.57;;
15679;SDS011;15488;48.114;11.532;2023-02-12T00:32:19;22.07;;;11.97;;
15679;SDS011;15488;48.114;11.532;2023-02-12T00:34:48;19.27;;;12.27;;
15679;SDS011;15488;48.114;11.532;2023-02-12T00:37:15;21.37;;;10.83;;
15679;SDS011;15488;48.114;11.532;2023-02-12T00:39:43;29.93;;;15.10;;
15679;SDS011;15488;48.114;11.532;2023-02-12T00:42:10;25.33;;;13.17;;
15679;SDS011;15488;48.114;11.532;2023-02-12T00:44:38;23.53;;;13.00;;
15679;SDS011;15488;48.114;11.532;2023-02-12T00:47:05;23.23;;;12.20;;
15679;SDS011;15488;48.114;11.532;2023-02-12T00:49:33;19.87;;;11.00;;
15679;SDS011;15488;48.114;11.532;2023-02-12T00:52:02;18.53;;;10.30;;
15679;SDS011;15488;48.114;11.532;2023-02-12T00:54:31;18.77;;;9.83;;
15679;SDS011;15488;48.114;11.532;2023-02-12T00:56:58;18.70;;;9.63;;
15679;SDS011;15488;48.114;11.532;2023-02-12T00:59:26;19.47;;;11.37;;
15679;SDS011;15488;48.114;11.532;2023-02-12T01:01:54;16.53;;;9.57;;
15679;SDS011;15488;48.114;11.532;2023-02-12T01:04:21;15.80;;;9.63;;
15679;SDS011;15488;48.114;11.532;2023-02-12T01:06:49;18.30;;;9.97;;
15679;SDS011;15488;48.114;11.532;2023-02-12T01:09:17;15.70;;;9.97;;
15679;SDS011;15488;48.114;11.532;2023-02-12T01:11:45;17.47;;;9.37;;
15679;SDS011;15488;48.114;11.532;2023-02-12T01:14:12;15.70;;;9.40;;
15679;SDS011;15488;48.114;11.532;2023-02-12T01:16:40;16.90;;;9.07;;
15679;SDS011;15488;48.114;11.532;2023-02-12T01:19:09;14.33;;;8.37;;
15679;SDS011;15488;48.114;11.532;2023-02-12T01:21:37;16.90;;;9.83;;
15679;SDS011;15488;48.114;11.532;2023-02-12T01:24:04;16.03;;;9.33;;
15679;SDS011;15488;48.114;11.532;2023-02-12T01:26:33;18.67;;;9.60;;
15679;SDS011;15488;48.114;11.532;2023-02-12T01:29:02;17.17;;;9.97;;
15679;SDS011;15488;48.114;11.532;2023-02-12T01:31:32;13.87;;;8.67;;
15679;SDS011;15488;48.114;11.532;2023-02-12T01:34:02;16.47;;;8.80;;
15679;SDS011;15488;48.114;11.532;2023-02-12T01:36:31;15.83;;;8.33;;
15679;SDS011;15488;48.114;11.532;2023-02-12T01:38:59;15.60;;;9.67;;
15679;SDS011;15488;48.114;11.532;2023-02-12T01:41:28;16.93;;;8.67;;
15679;SDS011;15488;48.114;11.532;2023-02-12T01:44:05;18.07;;;9.10;;
15679;SDS011;15488;48.114;11.532;2023-02-12T01:46:35;16.33;;;9.53;;
15679;SDS011;15488;48.114;11.532;2023-02-12T01:49:03;17.20;;;9.80;;
15679;SDS011;15488;48.114;11.532;2023-02-12T01:51:33;15.43;;;8.97;;
15679;SDS011;15488;48.114;11.532;2023-02-12T01:54:02;13.00;;;8.23;;
15679;SDS011;15488;48.114;11.532;2023-02-12T01:56:33;15.80;;;9.93;;
15679;SDS011;15488;48.114;11.532;2023-02-12T01:59:01;14.83;;;8.83;;
15679;SDS011;15488;48.114;11.532;2023-02-12T02:01:31;16.87;;;9.27;;
15679;SDS011;15488;48.114;11.532;2023-02-12T02:04:09;15.87;;;8.93;;
15679;SDS011;15488;48.114;11.532;2023-02-12T02:06:41;17.20;;;9.17;;
15679;SDS011;15488;48.114;11.532;2023-02-12T02:09:15;17.67;;;9.20;;
15679;SDS011;15488;48.114;11.532;2023-02-12T02:11:47;16.07;;;9.10;;
15679;SDS011;15488;48.114;11.532;2023-02-12T02:14:31;13.50;;;8.43;;
15679;SDS011;15488;48.114;11.532;2023-02-12T02:17:25;16.13;;;8.57;;
15679;SDS011;15488;48.114;11.532;2023-02-12T02:20:15;18.07;;;9.80;;
15679;SDS011;15488;48.114;11.532;2023-02-12T02:23:23;14.10;;;8.10;;
15679;SDS011;15488;48.114;11.532;2023-02-12T02:26:20;15.90;;;9.07;;
15679;SDS011;15488;48.114;11.532;2023-02-12T02:29:18;16.33;;;8.43;;
15679;SDS011;15488;48.114;11.532;2023-02-12T02:32:05;15.47;;;9.33;;
15679;SDS011;15488;48.114;11.532;2023-02-12T02:34:37;16.57;;;10.10;;
15679;SDS011;15488;48.114;11.532;2023-02-12T02:37:14;15.30;;;8.53;;
15679;SDS011;15488;48.114;11.532;2023-02-12T02:39:47;16.70;;;8.70;;
15679;SDS011;15488;48.114;11.532;2023-02-12T02:42:19;13.13;;;7.53;;
15679;SDS011;15488;48.114;11.532;2023-02-12T02:44:53;14.63;;;8.93;;
15679;SDS011;15488;48.114;11.532;2023-02-12T02:47:28;14.23;;;7.93;;
15679;SDS011;15488;48.114;11.532;2023-02-12T02:50:09;12.53;;;7.43;;
15679;SDS011;15488;48.114;11.532;2023-02-12T02:52:41;12.03;;;7.20;;
15679;SDS011;15488;48.114;11.532;2023-02-12T02:55:16;13.83;;;7.50;;
15679;SDS011;15488;48.114;11.532;2023-02-12T02:57:46;13.43;;;7.47;;
15679;SDS011;15488;48.114;11.532;2023-02-12T03:00:21;14.70;;;8.17;;
15679;SDS011;15488;48.114;11.532;2023-02-12T03:02:57;14.13;;;7.77;;
15679;SDS011;15488;48.114;11.532;2023-02-12T03:05:30;13.67;;;8.67;;
15679;SDS011;15488;48.114;11.532;2023-02-12T03:08:04;12.63;;;7.63;;
15679;SDS011;15488;48.114;11.532;2023-02-12T03:10:41;12.63;;;8.37;;
15679;SDS011;15488;48.114;11.532;2023-02-12T03:13:11;13.83;;;8.13;;
15679;SDS011;15488;48.114;11.532;2023-02-12T03:15:43;12.87;;;7.80;;
15679;SDS011;15488;48.114;11.532;2023-02-12T03:18:19;15.43;;;8.20;;
15679;SDS011;15488;48.114;11.532;2023-02-12T03:20:50;15.03;;;9.17;;
15679;SDS011;15488;48.114;11.532;2023-02-12T03:23:21;13.70;;;8.10;;
15679;SDS011;15488;48.114;11.532;2023-02-12T03:25:52;15.27;;;8.10;;
15679;SDS011;15488;48.114;11.532;2023-02-12T03:28:24;13.43;;;8.10;;
15679;SDS011;15488;48.114;11.532;2023-02-12T03:30:56;15.17;;;8.43;;
15679;SDS011;15488;48.114;11.532;2023-02-12T03:33:33;13.80;;;8.67;;
15679;SDS011;15488;48.114;11.532;2023-02-12T03:36:12;13.63;;;7.90;;
15679;SDS011;15488;48.114;11.532;2023-02-12T03:38:48;12.77;;;8.37;;
15679;SDS011;15488;48.114;11.532;2023-02-12T03:41:19;13.63;;;8.40;;
15679;SDS011;15488;48.114;11.532;2023-02-12T03:43:51;14.10;;;8.63;;
15679;SDS011;15488;48.114;11.532;2023-02-12T03:46:24;14.47;;;8.40;;
15679;SDS011;15488;48.114;11.532;2023-02-12T03:49:00;12.30;;;7.83;;
15679;SDS011;15488;48.114;11.532;2023-02-12T03:51:32;15.20;;;8.03;;
15679;SDS011;15488;48.114;11.532;2023-02-12T03:54:02;14.87;;;9.47;;
15679;SDS011;15488;48.114;11.532;2023-02-12T03:56:33;14.90;;;8.87;;
15679;SDS011;15488;48.114;11.532;2023-02-12T03:59:03;15.40;;;8.67;;
15679;SDS011;15488;48.114;11.532;2023-02-12T04:01:31;13.97;;;8.70;;
15679;SDS011;15488;48.114;11.532;2023-02-12T04:04:04;14.60;;;8.50;;
15679;SDS011;15488;48.114;11.532;2023-02-12T04:06:32;14.50;;;7.63;;
15679;SDS011;15488;48.114;11.532;2023-02-12T04:09:01;15.90;;;8.73;;
15679;SDS011;15488;48.114;11.532;2023-02-12T04:11:33;15.27;;;8.33;;
15679;SDS011;15488;48.114;11.532;2023-02-12T04:14:12;14.87;;;9.67;;
15679;SDS011;15488;48.114;11.532;2023-02-12T04:16:47;14.63;;;8.30;;
15679;SDS011;15488;48.114;11.532;2023-02-12T04:19:32;15.03;;;8.57;;
15679;SDS011;15488;48.114;11.532;2023-02-12T04:22:13;14.23;;;8.60;;
15679;SDS011;15488;48.114;11.532;2023-02-12T04:24:49;14.43;;;8.27;;
15679;SDS011;15488;48.114;11.532;2023-02-12T04:27:29;15.63;;;8.33;;
15679;SDS011;15488;48.114;11.532;2023-02-12T04:30:08;14.20;;;8.70;;
15679;SDS011;15488;48.114;11.532;2023-02-12T04:32:40;13.30;;;7.83;;
15679;SDS011;15488;48.114;11.532;2023-02-12T04:35:14;14.97;;;8.10;;
15679;SDS011;15488;48.114;11.532;2023-02-12T04:37:47;13.40;;;7.97;;
15679;SDS011;15488;48.114;11.532;2023-02-12T04:40:20;13.47;;;8.33;;
15679;SDS011;15488;48.114;11.532;2023-02-12T04:42:49;15.27;;;8.83;;
15679;SDS011;15488;48.114;11.532;2023-02-12T04:45:19;14.77;;;7.80;;
15679;SDS011;15488;48.114;11.532;2023-02-12T04:47:49;14.77;;;8.20;;
15679;SDS011;15488;48.114;11.532;2023-02-12T04:50:18;12.97;;;7.77;;
15679;SDS011;15488;48.114;11.532;2023-02-12T04:52:46;17.60;;;9.30;;
15679;SDS011;15488;48.114;11.532;2023-02-12T04:55:14;14.10;;;7.97;;
15679;SDS011;15488;48.114;11.532;2023-02-12T04:57:41;14.40;;;8.17;;
15679;SDS011;15488;48.114;11.532;2023-02-12T05:00:11;14.00;;;8.73;;
15679;SDS011;15488;48.114;11.532;2023-02-12T05:02:39;15.50;;;8.30;;
15679;SDS011;15488;48.114;11.532;2023-02-12T05:05:07;14.27;;;8.10;;
15679;SDS011;15488;48.114;11.532;2023-02-12T05:07:36;14.80;;;8.20;;
15679;SDS011;15488;48.114;11.532;2023-02-12T05:10:04;14.63;;;8.73;;
15679;SDS011;15488;48.114;11.532;2023-02-12T05:12:32;14.57;;;7.90;;
15679;SDS011;15488;48.114;11.532;2023-02-12T05:14:59;14.03;;;7.67;;
15679;SDS011;15488;48.114;11.532;2023-02-12T05:17:27;12.07;;;7.33;;
15679;SDS011;15488;48.114;11.532;2023-02-12T05:19:54;15.77;;;8.57;;
15679;SDS011;15488;48.114;11.532;2023-02-12T05:22:22;13.87;;;8.20;;
15679;SDS011;15488;48.114;11.532;2023-02-12T05:24:50;14.07;;;8.00;;
15679;SDS011;15488;48.114;11.532;2023-02-12T05:27:18;13.97;;;7.90;;
15679;SDS011;15488;48.114;11.532;2023-02-12T05:29:45;13.53;;;7.77;;
15679;SDS011;15488;48.114;11.532;2023-02-12T05:32:13;13.03;;;7.33;;
15679;SDS011;15488;48.114;11.532;2023-02-12T05:34:40;14.97;;;8.23;;
15679;SDS011;15488;48.114;11.532;2023-02-12T05:37:08;12.83;;;8.10;;
15679;SDS011;15488;48.114;11.532;2023-02-12T05:39:35;12.40;;;8.17;;
15679;SDS011;15488;48.114;11.532;2023-02-12T05:42:04;13.80;;;7.90;;
15679;SDS011;15488;48.114;11.532;2023-02-12T05:44:32;13.63;;;8.00;;
15679;SDS011;15488;48.114;11.532;2023-02-12T05:46:59;13.83;;;7.97;;
15679;SDS011;15488;48.114;11.532;2023-02-12T05:49:27;14.47;;;8.63;;
15679;SDS011;15488;48.114;11.532;2023-02-12T05:51:54;17.20;;;8.57;;
15679;SDS011;15488;48.114;11.532;2023-02-12T05:54:22;14.60;;;8.30;;
15679;SDS011;15488;48.114;11.532;2023-02-12T05:56:49;14.07;;;7.53;;
15679;SDS011;15488;48.114;11.532;2023-02-12T05:59:19;14.53;;;8.80;;
15679;SDS011;15488;48.114;11.532;2023-02-12T06:01:49;15.20;;;8.40;;
15679;SDS011;15488;48.114;11.532;2023-02-12T06:04:18;14.93;;;8.27;;
15679;SDS011;15488;48.114;11.532;2023-02-12T06:06:47;15.13;;;8.10;;
15679;SDS011;15488;48.114;11.532;2023-02-12T06:09:15;13.43;;;8.40;;
15679;SDS011;15488;48.114;11.532;2023-02-12T06:11:42;15.07;;;8.00;;
15679;SDS011;15488;48.114;11.532;2023-02-12T06:14:11;15.57;;;9.23;;
15679;SDS011;15488;48.114;11.532;2023-02-12T06:16:42;13.17;;;7.83;;
15679;SDS011;15488;48.114;11.532;2023-02-12T06:19:11;17.07;;;8.93;;
15679;SDS011;15488;48.114;11.532;2023-02-12T06:21:39;17.07;;;9.30;;
15679;SDS011;15488;48.114;11.532;2023-02-12T06:24:06;19.87;;;9.73;;
15679;SDS011;15488;48.114;11.532;2023-02-12T06:26:35;19.60;;;9.97;;
15679;SDS011;15488;48.114;11.532;2023-02-12T06:29:02;20.20;;;10.43;;
15679;SDS011;15488;48.114;11.532;2023-02-12T06:31:31;20.20;;;10.80;;
15679;SDS011;15488;48.114;11.532;2023-02-12T06:34:01;21.27;;;10.07;;
15679;SDS011;15488;48.114;11.532;2023-02-12T06:36:30;19.83;;;10.83;;
15679;SDS011;15488;48.114;11.532;2023-02-12T06:38:59;19.77;;;10.47;;
15679;SDS011;15488;48.114;11.532;2023-02-12T06:41:27;20.83;;;12.00;;
15679;SDS011;15488;48.114;11.532;2023-02-12T06:43:55;19.70;;;10.47;;
15679;SDS011;15488;48.114;11.532;2023-02-12T06:46:22;21.30;;;10.37;;
15679;SDS011;15488;48.114;11.532;2023-02-12T06:48:51;25.67;;;10.37;;
15679;SDS011;15488;48.114;11.532;2023-02-12T06:51:21;22.23;;;10.20;;
15679;SDS011;15488;48.114;11.532;2023-02-12T06:53:49;20.67;;;11.03;;
15679;SDS011;15488;48.114;11.532;2023-02-12T06:56:17;24.10;;;11.13;;
15679;SDS011;15488;48.114;11.532;2023-02-12T06:58:47;21.33;;;11.63;;
15679;SDS011;15488;48.114;11.532;2023-02-12T07:01:19;23.40;;;11.13;;
15679;SDS011;15488;48.114;11.532;2023-02-12T07:03:49;22.37;;;11.50;;
15679;SDS011;15488;48.114;11.532;2023-02-12T07:06:18;24.50;;;10.90;;
15679;SDS011;15488;48.114;11.532;2023-02-12T07:08:48;21.67;;;10.57;;
15679;SDS011;15488;48.114;11.532;2023-02-12T07:11:16;21.80;;;11.30;;
15679;SDS011;15488;48.114;11.532;2023-02-12T07:13:44;23.93;;;11.80;;
15679;SDS011;15488;48.114;11.532;2023-02-12T07:16:12;22.20;;;11.20;;
15679;SDS011;15488;48.114;11.532;2023-02-12T07:18:41;23.90;;;10.97;;
15679;SDS011;15488;48.114;11.532;2023-02-12T07:21:09;22.13;;;11.20;;
15679;SDS011;15488;48.114;11.532;2023-02-12T07:23:39;23.83;;;12.30;;
15679;SDS011;15488;48.114;11.532;2023-02-12T07:26:08;24.43;;;12.70;;
15679;SDS011;15488;48.114;11.532;2023-02-12T07:28:38;27.40;;;13.10;;
15679;SDS011;15488;48.114;11.532;2023-02-12T07:31:06;21.30;;;11.13;;
15679;SDS011;15488;48.114;11.532;2023-02-12T07:33:35;22.87;;;11.80;;
15679;SDS011;15488;48.114;11.532;2023-02-12T07:36:03;22.57;;;11.43;;
15679;SDS011;15488;48.114;11.532;2023-02-12T07:38:32;21.63;;;10.97;;
15679;SDS011;15488;48.114;11.532;2023-02-12T07:41:06;19.17;;;10.73;;
15679;SDS011;15488;48.114;11.532;2023-02-12T07:43:36;22.47;;;11.43;;
15679;SDS011;15488;48.114;11.532;2023-02-12T07:46:07;20.80;;;11.37;;
15679;SDS011;15488;48.114;11.532;2023-02-12T07:48:36;18.97;;;10.53;;
15679;SDS011;15488;48.114;11.532;2023-02-12T07:51:04;21.80;;;10.77;;
15679;SDS011;15488;48.114;11.532;2023-02-12T07:53:34;20.00;;;10.47;;
15679;SDS011;15488;48.114;11.532;2023-02-12T07:56:07;22.50;;;10.80;;
15679;SDS011;15488;48.114;11.532;2023-02-12T07:58:36;22.87;;;11.57;;
15679;SDS011;15488;48.114;11.532;2023-02-12T08:01:10;19.87;;;11.13;;
15679;SDS011;15488;48.114;11.532;2023-02-12T08:03:38;20.27;;;10.43;;
15679;SDS011;15488;48.114;11.532;2023-02-12T08:06:07;20.13;;;10.40;;
15679;SDS011;15488;48.114;11.532;2023-02-12T08:08:35;15.40;;;9.23;;
15679;SDS011;15488;48.114;11.532;2023-02-12T08:11:04;18.90;;;9.70;;
15679;SDS011;15488;48.114;11.532;2023-02-12T08:13:34;21.50;;;9.70;;
15679;SDS011;15488;48.114;11.532;2023-02-12T08:16:01;22.13;;;10.57;;
15679;SDS011;15488;48.114;11.532;2023-02-12T08:18:30;18.20;;;10.57;;
15679;SDS011;15488;48.114;11.532;2023-02-12T08:21:02;17.97;;;10.23;;
15679;SDS011;15488;48.114;11.532;2023-02-12T08:23:31;21.10;;;9.90;;
15679;SDS011;15488;48.114;11.532;2023-02-12T08:26:07;21.80;;;10.97;;
15679;SDS011;15488;48.114;11.532;2023-02-12T08:28:36;26.70;;;11.00;;
15679;SDS011;15488;48.114;11.532;2023-02-12T08:31:07;23.73;;;10.80;;
15679;SDS011;15488;48.114;11.532;2023-02-12T08:33:35;18.87;;;9.87;;
15679;SDS011;15488;48.114;11.532;2023-02-12T08:36:03;20.73;;;10.20;;
15679;SDS011;15488;48.114;11.532;2023-02-12T08:38:33;21.83;;;10.43;;
15679;SDS011;15488;48.114;11.532;2023-02-12T08:41:02;20.23;;;10.93;;
15679;SDS011;15488;48.114;11.532;2023-02-12T08:43:34;22.97;;;11.33;;
15679;SDS011;15488;48.114;11.532;2023-02-12T08:46:02;19.20;;;10.83;;
15679;SDS011;15488;48.114;11.532;2023-02-12T08:48:30;19.83;;;10.43;;
15679;SDS011;15488;48.114;11.532;2023-02-12T08:51:05;19.33;;;9.60;;
15679;SDS011;15488;48.114;11.532;2023-02-12T08:53:34;18.30;;;9.93;;
15679;SDS011;15488;48.114;11.532;2023-02-12T08:56:02;19.97;;;9.97;;
15679;SDS011;15488;48.114;11.532;2023-02-12T08:58:34;17.20;;;9.57;;
15679;SDS011;15488;48.114;11.532;2023-02-12T09:01:02;17.60;;;10.03;;
15679;SDS011;15488;48.114;11.532;2023-02-12T09:03:34;17.37;;;10.27;;
15679;SDS011;15488;48.114;11.532;2023-02-12T09:06:01;17.77;;;10.37;;
15679;SDS011;15488;48.114;11.532;2023-02-12T09:08:29;19.57;;;10.73;;
15679;SDS011;15488;48.114;11.532;2023-02-12T09:10:56;20.23;;;10.33;;
15679;SDS011;15488;48.114;11.532;2023-02-12T09:13:24;19.00;;;10.17;;
15679;SDS011;15488;48.114;11.532;2023-02-12T09:15:53;21.20;;;10.33;;
15679;SDS011;15488;48.114;11.532;2023-02-12T09:18:20;21.07;;;10.97;;
15679;SDS011;15488;48.114;11.532;2023-02-12T09:20:47;21.60;;;10.37;;
15679;SDS011;15488;48.114;11.532;2023-02-12T09:23:15;19.60;;;10.30;;
15679;SDS011;15488;48.114;11.532;2023-02-12T09:25:43;23.90;;;10.80;;
15679;SDS011;15488;48.114;11.532;2023-02-12T09:28:12;20.70;;;10.40;;
15679;SDS011;15488;48.114;11.532;2023-02-12T09:30:40;18.90;;;10.10;;
15679;SDS011;15488;48.114;11.532;2023-02-12T09:33:09;20.73;;;11.20;;
15679;SDS011;15488;48.114;11.532;2023-02-12T09:35:37;21.23;;;10.90;;
15679;SDS011;15488;48.114;11.532;2023-02-12T09:38:05;21.30;;;10.37;;
15679;SDS011;15488;48.114;11.532;2023-02-12T09:40:34;22.30;;;11.20;;
15679;SDS011;15488;48.114;11.532;2023-02-12T09:43:10;21.13;;;10.53;;
15679;SDS011;15488;48.114;11.532;2023-02-12T09:45:44;19.77;;;9.90;;
15679;SDS011;15488;48.114;11.532;2023-02-12T09:48:26;20.47;;;9.90;;
15679;SDS011;15488;48.114;11.532;2023-02-12T09:51:03;21.70;;;11.03;;
15679;SDS011;15488;48.114;11.532;2023-02-12T09:53:34;22.90;;;11.27;;
15679;SDS011;15488;48.114;11.532;2023-02-12T09:56:07;19.50;;;10.47;;
15679;SDS011;15488;48.114;11.532;2023-02-12T09:58:40;16.60;;;9.47;;
15679;SDS011;15488;48.114;11.532;2023-02-12T10:01:10;17.37;;;8.53;;
15679;SDS011;15488;48.114;11.532;2023-02-12T10:03:40;13.87;;;7.70;;
15679;SDS011;15488;48.114;11.532;2023-02-12T10:06:10;8.63;;;5.13;;
15679;SDS011;15488;48.114;11.532;2023-02-12T10:11:36;6.63;;;3.87;;
15679;SDS011;15488;48.114;11.532;2023-02-12T10:14:24;5.27;;;3.13;;
15679;SDS011;15488;48.114;11.532;2023-02-12T10:17:06;3.33;;;2.27;;
15679;SDS011;15488;48.114;11.532;2023-02-12T10:19:48;4.00;;;2.50;;
15679;SDS011;15488;48.114;11.532;2023-02-12T10:22:28;3.83;;;2.70;;
15679;SDS011;15488;48.114;11.532;2023-02-12T10:25:08;4.70;;;2.77;;
15679;SDS011;15488;48.114;11.532;2023-02-12T10:27:48;5.13;;;3.10;;
15679;SDS011;15488;48.114;11.532;2023-02-12T10:30:17;3.23;;;2.67;;
15679;SDS011;15488;48.114;11.532;2023-02-12T10:32:48;3.87;;;2.73;;
15679;SDS011;15488;48.114;11.532;2023-02-12T10:35:20;3.73;;;2.63;;
15679;SDS011;15488;48.114;11.532;2023-02-12T10:37:50;3.57;;;2.73;;
15679;SDS011;15488;48.114;11.532;2023-02-12T10:40:22;3.43;;;2.50;;
15679;SDS011;15488;48.114;11.532;2023-02-12T10:42:52;3.73;;;2.80;;
15679;SDS011;15488;48.114;11.532;2023-02-12T10:45:28;3.60;;;2.60;;
15679;SDS011;15488;48.114;11.532;2023-02-12T10:48:03;4.43;;;3.00;;
15679;SDS011;15488;48.114;11.532;2023-02-12T10:50:43;5.50;;;2.80;;
15679;SDS011;15488;48.114;11.532;2023-02-12T10:53:19;2.40;;;1.93;;
15679;SDS011;15488;48.114;11.532;2023-02-12T10:55:48;3.57;;;1.90;;
15679;SDS011;15488;48.114;11.532;2023-02-12T10:58:29;3.50;;;2.00;;
15679;SDS011;15488;48.114;11.532;2023-02-12T11:00:57;3.97;;;2.80;;
15679;SDS011;15488;48.114;11.532;2023-02-12T11:03:29;4.20;;;3.40;;
15679;SDS011;15488;48.114;11.532;2023-02-12T11:06:12;3.70;;;2.63;;
15679;SDS011;15488;48.114;11.532;2023-02-12T11:08:40;2.60;;;2.00;;
15679;SDS011;15488;48.114;11.532;2023-02-12T11:11:09;2.90;;;2.00;;
15679;SDS011;15488;48.114;11.532;2023-02-12T11:13:39;3.00;;;2.00;;
15679;SDS011;15488;48.114;11.532;2023-02-12T11:16:09;4.37;;;2.80;;
15679;SDS011;15488;48.114;11.532;2023-02-12T11:18:38;3.73;;;2.50;;
15679;SDS011;15488;48.114;11.532;2023-02-12T11:21:06;4.07;;;2.87;;
15679;SDS011;15488;48.114;11.532;2023-02-12T11:23:37;4.17;;;3.00;;
15679;SDS011;15488;48.114;11.532;2023-02-12T11:26:06;4.57;;;3.27;;
15679;SDS011;15488;48.114;11.532;2023-02-12T11:28:52;4.80;;;2.93;;
15679;SDS011;15488;48.114;11.532;2023-02-12T11:31:22;4.97;;;3.20;;
15679;SDS011;15488;48.114;11.532;2023-02-12T11:34:07;4.77;;;2.97;;
15679;SDS011;15488;48.114;11.532;2023-02-12T11:36:41;4.93;;;3.00;;
15679;SDS011;15488;48.114;11.532;2023-02-12T11:39:17;5.10;;;3.27;;
15679;SDS011;15488;48.114;11.532;2023-02-12T11:41:49;3.90;;;2.67;;
15679;SDS011;15488;48.114;11.532;2023-02-12T11:44:19;4.10;;;2.73;;
15679;SDS011;15488;48.114;11.532;2023-02-12T11:46:52;3.30;;;2.40;;
15679;SDS011;15488;48.114;11.532;2023-02-12T11:49:22;3.40;;;2.53;;
15679;SDS011;15488;48.114;11.532;2023-02-12T11:51:51;3.50;;;2.50;;
15679;SDS011;15488;48.114;11.532;2023-02-12T11:54:22;2.27;;;1.67;;
15679;SDS011;15488;48.114;11.532;2023-02-12T11:56:54;2.10;;;1.50;;
15679;SDS011;15488;48.114;11.532;2023-02-12T11:59:28;1.73;;;1.23;;
15679;SDS011;15488;48.114;11.532;2023-02-12T12:02:00;1.47;;;1.00;;
15679;SDS011;15488;48.114;11.532;2023-02-12T12:04:40;1.80;;;1.13;;
15679;SDS011;15488;48.114;11.532;2023-02-12T12:07:10;2.03;;;1.20;;
15679;SDS011;15488;48.114;11.532;2023-02-12T12:09:45;1.90;;;1.20;;
15679;SDS011;15488;48.114;11.532;2023-02-12T12:12:16;1.67;;;1.13;;
15679;SDS011;15488;48.114;11.532;2023-02-12T12:14:48;2.73;;;1.90;;
15679;SDS011;15488;48.114;11.532;2023-02-12T12:17:39;3.33;;;2.10;;
15679;SDS011;15488;48.114;11.532;2023-02-12T12:20:29;4.50;;;1.40;;
15679;SDS011;15488;48.114;11.532;2023-02-12T12:23:02;2.33;;;1.20;;
15679;SDS011;15488;48.114;11.532;2023-02-12T12:25:35;2.00;;;1.23;;
15679;SDS011;15488;48.114;11.532;2023-02-12T12:28:11;1.50;;;1.10;;
15679;SDS011;15488;48.114;11.532;2023-02-12T12:31:09;1.43;;;1.00;;
15679;SDS011;15488;48.114;11.532;2023-02-12T12:33:42;3.47;;;1.50;;
15679;SDS011;15488;48.114;11.532;2023-02-12T12:39:14;2.13;;;1.57;;
15679;SDS011;15488;48.114;11.532;2023-02-12T12:41:56;2.23;;;1.70;;
15679;SDS011;15488;48.114;11.532;2023-02-12T12:44:50;3.03;;;2.13;;
15679;SDS011;15488;48.114;11.532;2023-02-12T12:47:31;3.90;;;2.40;;
15679;SDS011;15488;48.114;11.532;2023-02-12T12:50:17;2.33;;;1.90;;
15679;SDS011;15488;48.114;11.532;2023-02-12T12:53:03;2.57;;;1.97;;
15679;SDS011;15488;48.114;11.532;2023-02-12T12:55:44;2.80;;;2.10;;
15679;SDS011;15488;48.114;11.532;2023-02-12T12:58:32;3.23;;;2.20;;
15679;SDS011;15488;48.114;11.532;2023-02-12T13:01:15;3.27;;;2.50;;
15679;SDS011;15488;48.114;11.532;2023-02-12T13:07:17;2.73;;;2.40;;
15679;SDS011;15488;48.114;11.532;2023-02-12T13:09:58;2.73;;;2.03;;
15679;SDS011;15488;48.114;11.532;2023-02-12T13:12:45;3.60;;;2.40;;
15679;SDS011;15488;48.114;11.532;2023-02-12T13:15:24;3.70;;;2.53;;
15679;SDS011;15488;48.114;11.532;2023-02-12T13:18:00;4.97;;;2.63;;
15679;SDS011;15488;48.114;11.532;2023-02-12T13:20:40;3.30;;;2.23;;
15679;SDS011;15488;48.114;11.532;2023-02-12T13:23:16;3.63;;;2.50;;
15679;SDS011;15488;48.114;11.532;2023-02-12T13:25:51;3.50;;;2.60;;
15679;SDS011;15488;48.114;11.532;2023-02-12T13:28:28;5.00;;;2.70;;
15679;SDS011;15488;48.114;11.532;2023-02-12T13:31:00;4.67;;;2.90;;
15679;SDS011;15488;48.114;11.532;2023-02-12T13:33:35;4.23;;;2.80;;
15679;SDS011;15488;48.114;11.532;2023-02-12T13:36:09;3.30;;;2.63;;
15679;SDS011;15488;48.114;11.532;2023-02-12T13:38:39;4.17;;;3.20;;
15679;SDS011;15488;48.114;11.532;2023-02-12T13:41:11;5.50;;;3.80;;
15679;SDS011;15488;48.114;11.532;2023-02-12T13:43:46;4.30;;;3.23;;
15679;SDS011;15488;48.114;11.532;2023-02-12T13:46:25;4.00;;;2.90;;
15679;SDS011;15488;48.114;11.532;2023-02-12T13:49:01;3.80;;;3.00;;
15679;SDS011;15488;48.114;11.532;2023-02-12T13:51:39;4.97;;;3.20;;
15679;SDS011;15488;48.114;11.532;2023-02-12T13:54:18;4.10;;;2.80;;
15679;SDS011;15488;48.114;11.532;2023-02-12T13:57:00;4.70;;;3.30;;
15679;SDS011;15488;48.114;11.532;2023-02-12T13:59:37;4.47;;;3.23;;
15679;SDS011;15488;48.114;11.532;2023-02-12T14:05:23;5.23;;;3.43;;
15679;SDS011;15488;48.114;11.532;2023-02-12T14:07:53;4.80;;;3.30;;
15679;SDS011;15488;48.114;11.532;2023-02-12T14:10:24;4.23;;;3.30;;
15679;SDS011;15488;48.114;11.532;2023-02-12T14:12:55;4.50;;;3.77;;
15679;SDS011;15488;48.114;11.532;2023-02-12T14:15:34;4.27;;;3.40;;
15679;SDS011;15488;48.114;11.532;2023-02-12T14:18:06;4.80;;;3.70;;
15679;SDS011;15488;48.114;11.532;2023-02-12T14:27:13;6.13;;;4.20;;
15679;SDS011;15488;48.114;11.532;2023-02-12T14:30:00;5.57;;;4.20;;
15679;SDS011;15488;48.114;11.532;2023-02-12T14:32:55;4.93;;;4.13;;
15679;SDS011;15488;48.114;11.532;2023-02-12T14:35:45;6.17;;;5.13;;
15679;SDS011;15488;48.114;11.532;2023-02-12T14:41:21;8.07;;;6.00;;
15679;SDS011;15488;48.114;11.532;2023-02-12T14:47:14;7.33;;;5.50;;
15679;SDS011;15488;48.114;11.532;2023-02-12T14:50:11;6.03;;;4.90;;
15679;SDS011;15488;48.114;11.532;2023-02-12T14:52:45;6.63;;;5.40;;
15679;SDS011;15488;48.114;11.532;2023-02-12T14:55:24;5.97;;;4.93;;
15679;SDS011;15488;48.114;11.532;2023-02-12T14:57:58;6.83;;;5.33;;
15679;SDS011;15488;48.114;11.532;2023-02-12T15:00:30;6.60;;;4.93;;
15679;SDS011;15488;48.114;11.532;2023-02-12T15:03:06;5.90;;;4.63;;
15679;SDS011;15488;48.114;11.532;2023-02-12T15:06:03;6.07;;;4.90;;
15679;SDS011;15488;48.114;11.532;2023-02-12T15:08:42;7.33;;;5.30;;
15679;SDS011;15488;48.114;11.532;2023-02-12T15:11:25;8.13;;;5.83;;
15679;SDS011;15488;48.114;11.532;2023-02-12T15:14:00;6.10;;;4.93;;
15679;SDS011;15488;48.114;11.532;2023-02-12T15:16:32;7.47;;;5.90;;
15679;SDS011;15488;48.114;11.532;2023-02-12T15:19:11;7.97;;;5.80;;